sensor_id;sensor_type;location;lat;lon;timestamp;P1;durP1;ratioP1;P2;durP2;ratioP2
18677;SDS011;9469;51.114;13.914;2024-03-25T00:02:08;3.93;;;2.60;;
18677;SDS011;9469;51.114;13.914;2024-03-25T00:07:09;4.97;;;2.67;;
18677;SDS011;9469;51.114;13.914;2024-03-25T00:12:13;4.57;;;2.93;;
18677;SDS011;9469;51.114;13.914;2024-03-25T00:17:14;2.63;;;2.43;;
18677;SDS011;9469;51.114;13.914;2024-03-25T00:22:16;3.87;;;2.13;;
18677;SDS011;9469;51.114;13.914;2024-03-25T00:27:20;3.90;;;2.77;;
18677;SDS011;9469;51.114;13.914;2024-03-25T00:32:21;3.30;;;2.90;;
18677;SDS011;9469;51.114;13.914;2024-03-25T00:37:23;3.10;;;2.87;;
18677;SDS011;9469;51.114;13.914;2024-03-25T00:42:27;4.63;;;2.73;;
18677;SDS011;9469;51.114;13.914;2024-03-25T00:47:29;2.87;;;2.67;;
18677;SDS011;9469;51.114;13.914;2024-03-25T00:52:30;2.40;;;2.20;;
18677;SDS011;9469;51.114;13.914;2024-03-25T00:57:34;3.30;;;2.73;;
18677;SDS011;9469;51.114;13.914;2024-03-25T01:02:36;3.93;;;2.87;;
18677;SDS011;9469;51.114;13.914;2024-03-25T01:07:37;2.67;;;2.30;;
18677;SDS011;9469;51.114;13.914;2024-03-25T01:12:42;2.73;;;2.47;;
18677;SDS011;9469;51.114;13.914;2024-03-25T01:17:43;3.50;;;3.20;;
18677;SDS011;9469;51.114;13.914;2024-03-25T01:22:44;3.17;;;2.80;;
18677;SDS011;9469;51.114;13.914;2024-03-25T01:27:48;3.50;;;3.20;;
18677;SDS011;9469;51.114;13.914;2024-03-25T01:32:50;4.27;;;3.27;;
18677;SDS011;9469;51.114;13.914;2024-03-25T01:37:51;3.60;;;3.30;;
18677;SDS011;9469;51.114;13.914;2024-03-25T01:42:58;4.23;;;3.60;;
18677;SDS011;9469;51.114;13.914;2024-03-25T01:48:01;4.43;;;3.53;;
18677;SDS011;9469;51.114;13.914;2024-03-25T01:53:05;3.00;;;2.80;;
18677;SDS011;9469;51.114;13.914;2024-03-25T01:58:09;2.73;;;2.50;;
18677;SDS011;9469;51.114;13.914;2024-03-25T02:03:11;2.80;;;2.60;;
18677;SDS011;9469;51.114;13.914;2024-03-25T02:08:13;3.23;;;2.93;;
18677;SDS011;9469;51.114;13.914;2024-03-25T02:13:17;3.27;;;2.87;;
18677;SDS011;9469;51.114;13.914;2024-03-25T02:18:19;5.03;;;3.27;;
18677;SDS011;9469;51.114;13.914;2024-03-25T02:23:20;4.20;;;3.63;;
18677;SDS011;9469;51.114;13.914;2024-03-25T02:28:24;3.40;;;3.10;;
18677;SDS011;9469;51.114;13.914;2024-03-25T02:33:25;4.40;;;3.20;;
18677;SDS011;9469;51.114;13.914;2024-03-25T02:38:27;4.70;;;3.90;;
18677;SDS011;9469;51.114;13.914;2024-03-25T02:43:31;4.40;;;4.00;;
18677;SDS011;9469;51.114;13.914;2024-03-25T02:48:33;5.17;;;4.67;;
18677;SDS011;9469;51.114;13.914;2024-03-25T02:53:35;5.03;;;4.40;;
18677;SDS011;9469;51.114;13.914;2024-03-25T02:58:39;4.73;;;3.37;;
18677;SDS011;9469;51.114;13.914;2024-03-25T03:03:40;5.47;;;4.67;;
18677;SDS011;9469;51.114;13.914;2024-03-25T03:08:42;3.80;;;3.50;;
18677;SDS011;9469;51.114;13.914;2024-03-25T03:13:46;4.53;;;3.97;;
18677;SDS011;9469;51.114;13.914;2024-03-25T03:18:48;4.80;;;4.47;;
18677;SDS011;9469;51.114;13.914;2024-03-25T03:23:49;5.33;;;4.77;;
18677;SDS011;9469;51.114;13.914;2024-03-25T03:28:53;6.83;;;5.23;;
18677;SDS011;9469;51.114;13.914;2024-03-25T03:33:55;5.17;;;4.67;;
18677;SDS011;9469;51.114;13.914;2024-03-25T03:38:56;5.97;;;5.40;;
18677;SDS011;9469;51.114;13.914;2024-03-25T03:44:00;7.43;;;5.53;;
18677;SDS011;9469;51.114;13.914;2024-03-25T03:49:02;7.93;;;5.40;;
18677;SDS011;9469;51.114;13.914;2024-03-25T03:54:03;8.33;;;4.93;;
18677;SDS011;9469;51.114;13.914;2024-03-25T03:59:07;5.83;;;4.57;;
18677;SDS011;9469;51.114;13.914;2024-03-25T04:04:09;7.40;;;5.00;;
18677;SDS011;9469;51.114;13.914;2024-03-25T04:09:10;5.83;;;4.73;;
18677;SDS011;9469;51.114;13.914;2024-03-25T04:14:15;5.60;;;4.40;;
18677;SDS011;9469;51.114;13.914;2024-03-25T04:19:16;8.40;;;4.47;;
18677;SDS011;9469;51.114;13.914;2024-03-25T04:24:17;6.43;;;5.00;;
18677;SDS011;9469;51.114;13.914;2024-03-25T04:29:22;4.83;;;4.43;;
18677;SDS011;9469;51.114;13.914;2024-03-25T04:34:24;5.10;;;3.63;;
18677;SDS011;9469;51.114;13.914;2024-03-25T04:39:25;3.93;;;3.57;;
18677;SDS011;9469;51.114;13.914;2024-03-25T04:44:29;5.60;;;3.30;;
18677;SDS011;9469;51.114;13.914;2024-03-25T04:49:31;7.70;;;3.90;;
18677;SDS011;9469;51.114;13.914;2024-03-25T04:54:32;3.90;;;3.27;;
18677;SDS011;9469;51.114;13.914;2024-03-25T04:59:36;4.33;;;3.27;;
18677;SDS011;9469;51.114;13.914;2024-03-25T05:04:38;7.23;;;3.40;;
18677;SDS011;9469;51.114;13.914;2024-03-25T05:09:39;9.23;;;4.03;;
18677;SDS011;9469;51.114;13.914;2024-03-25T05:14:44;3.97;;;3.30;;
18677;SDS011;9469;51.114;13.914;2024-03-25T05:19:46;5.13;;;3.33;;
18677;SDS011;9469;51.114;13.914;2024-03-25T05:24:48;5.13;;;4.63;;
18677;SDS011;9469;51.114;13.914;2024-03-25T05:29:59;5.37;;;3.20;;
18677;SDS011;9469;51.114;13.914;2024-03-25T05:35:04;4.30;;;3.70;;
18677;SDS011;9469;51.114;13.914;2024-03-25T05:40:06;4.10;;;3.13;;
18677;SDS011;9469;51.114;13.914;2024-03-25T05:45:11;4.60;;;3.90;;
18677;SDS011;9469;51.114;13.914;2024-03-25T05:50:13;5.47;;;3.10;;
18677;SDS011;9469;51.114;13.914;2024-03-25T05:55:14;4.20;;;3.40;;
18677;SDS011;9469;51.114;13.914;2024-03-25T06:00:18;4.03;;;3.60;;
18677;SDS011;9469;51.114;13.914;2024-03-25T06:05:20;5.67;;;4.40;;
18677;SDS011;9469;51.114;13.914;2024-03-25T06:10:22;4.23;;;3.83;;
18677;SDS011;9469;51.114;13.914;2024-03-25T06:15:27;3.63;;;3.30;;
18677;SDS011;9469;51.114;13.914;2024-03-25T06:20:28;5.13;;;3.97;;
18677;SDS011;9469;51.114;13.914;2024-03-25T06:25:31;4.20;;;3.83;;
18677;SDS011;9469;51.114;13.914;2024-03-25T06:30:35;7.33;;;3.57;;
18677;SDS011;9469;51.114;13.914;2024-03-25T06:35:51;5.53;;;3.90;;
18677;SDS011;9469;51.114;13.914;2024-03-25T06:40:57;14.33;;;6.20;;
18677;SDS011;9469;51.114;13.914;2024-03-25T06:46:04;7.73;;;4.20;;
18677;SDS011;9469;51.114;13.914;2024-03-25T06:51:06;5.47;;;3.73;;
18677;SDS011;9469;51.114;13.914;2024-03-25T06:56:07;9.20;;;4.00;;
18677;SDS011;9469;51.114;13.914;2024-03-25T07:01:11;4.63;;;3.87;;
18677;SDS011;9469;51.114;13.914;2024-03-25T07:06:12;4.07;;;3.50;;
18677;SDS011;9469;51.114;13.914;2024-03-25T07:11:14;4.13;;;3.20;;
18677;SDS011;9469;51.114;13.914;2024-03-25T07:16:18;4.30;;;3.40;;
18677;SDS011;9469;51.114;13.914;2024-03-25T07:21:26;4.90;;;2.80;;
18677;SDS011;9469;51.114;13.914;2024-03-25T07:32:00;4.07;;;2.57;;
18677;SDS011;9469;51.114;13.914;2024-03-25T07:37:06;6.50;;;3.00;;
18677;SDS011;9469;51.114;13.914;2024-03-25T07:42:07;3.10;;;2.87;;
18677;SDS011;9469;51.114;13.914;2024-03-25T07:47:16;4.77;;;2.70;;
18677;SDS011;9469;51.114;13.914;2024-03-25T07:52:21;4.67;;;3.50;;
18677;SDS011;9469;51.114;13.914;2024-03-25T07:57:33;14.87;;;3.17;;
18677;SDS011;9469;51.114;13.914;2024-03-25T08:02:37;10.57;;;3.47;;
18677;SDS011;9469;51.114;13.914;2024-03-25T08:07:41;9.03;;;3.17;;
18677;SDS011;9469;51.114;13.914;2024-03-25T08:12:42;4.73;;;4.20;;
18677;SDS011;9469;51.114;13.914;2024-03-25T08:17:50;6.50;;;3.40;;
18677;SDS011;9469;51.114;13.914;2024-03-25T08:23:10;6.50;;;3.90;;
18677;SDS011;9469;51.114;13.914;2024-03-25T08:28:28;12.33;;;4.40;;
18677;SDS011;9469;51.114;13.914;2024-03-25T08:33:38;5.93;;;3.33;;
18677;SDS011;9469;51.114;13.914;2024-03-25T08:38:43;4.20;;;3.27;;
18677;SDS011;9469;51.114;13.914;2024-03-25T08:43:45;4.33;;;3.73;;
18677;SDS011;9469;51.114;13.914;2024-03-25T08:48:49;6.60;;;3.40;;
18677;SDS011;9469;51.114;13.914;2024-03-25T08:53:51;6.73;;;3.60;;
18677;SDS011;9469;51.114;13.914;2024-03-25T08:58:52;4.77;;;3.40;;
18677;SDS011;9469;51.114;13.914;2024-03-25T09:03:58;7.70;;;3.77;;
18677;SDS011;9469;51.114;13.914;2024-03-25T09:09:03;5.97;;;3.33;;
18677;SDS011;9469;51.114;13.914;2024-03-25T09:14:21;3.80;;;3.20;;
18677;SDS011;9469;51.114;13.914;2024-03-25T09:19:25;5.87;;;4.13;;
18677;SDS011;9469;51.114;13.914;2024-03-25T09:24:28;5.37;;;3.93;;
18677;SDS011;9469;51.114;13.914;2024-03-25T09:29:33;4.40;;;3.43;;
18677;SDS011;9469;51.114;13.914;2024-03-25T09:34:37;5.90;;;2.90;;
18677;SDS011;9469;51.114;13.914;2024-03-25T09:39:39;3.33;;;3.00;;
18677;SDS011;9469;51.114;13.914;2024-03-25T09:44:44;4.67;;;3.70;;
18677;SDS011;9469;51.114;13.914;2024-03-25T09:49:49;3.13;;;2.77;;
18677;SDS011;9469;51.114;13.914;2024-03-25T09:54:55;3.40;;;2.70;;
18677;SDS011;9469;51.114;13.914;2024-03-25T09:59:56;5.17;;;3.50;;
18677;SDS011;9469;51.114;13.914;2024-03-25T10:05:02;2.67;;;2.47;;
18677;SDS011;9469;51.114;13.914;2024-03-25T10:10:07;5.77;;;3.03;;
18677;SDS011;9469;51.114;13.914;2024-03-25T10:15:14;4.53;;;3.07;;
18677;SDS011;9469;51.114;13.914;2024-03-25T10:20:19;2.70;;;2.43;;
18677;SDS011;9469;51.114;13.914;2024-03-25T10:25:21;1.73;;;1.60;;
18677;SDS011;9469;51.114;13.914;2024-03-25T10:30:33;2.50;;;2.10;;
18677;SDS011;9469;51.114;13.914;2024-03-25T10:35:38;2.37;;;2.17;;
18677;SDS011;9469;51.114;13.914;2024-03-25T10:40:43;3.80;;;1.97;;
18677;SDS011;9469;51.114;13.914;2024-03-25T10:45:51;4.33;;;1.77;;
18677;SDS011;9469;51.114;13.914;2024-03-25T10:50:58;3.90;;;1.83;;
18677;SDS011;9469;51.114;13.914;2024-03-25T10:56:04;1.93;;;1.60;;
18677;SDS011;9469;51.114;13.914;2024-03-25T11:01:07;5.03;;;2.07;;
18677;SDS011;9469;51.114;13.914;2024-03-25T11:06:14;6.23;;;1.90;;
18677;SDS011;9469;51.114;13.914;2024-03-25T11:11:15;9.67;;;2.47;;
18677;SDS011;9469;51.114;13.914;2024-03-25T11:16:25;14.70;;;3.13;;
18677;SDS011;9469;51.114;13.914;2024-03-25T11:21:32;22.53;;;7.73;;
18677;SDS011;9469;51.114;13.914;2024-03-25T11:26:33;6.77;;;2.50;;
18677;SDS011;9469;51.114;13.914;2024-03-25T11:31:37;2.80;;;2.20;;
18677;SDS011;9469;51.114;13.914;2024-03-25T11:36:43;2.50;;;2.00;;
18677;SDS011;9469;51.114;13.914;2024-03-25T11:41:46;3.33;;;1.80;;
18677;SDS011;9469;51.114;13.914;2024-03-25T11:46:50;2.83;;;2.30;;
18677;SDS011;9469;51.114;13.914;2024-03-25T11:51:55;2.90;;;2.40;;
18677;SDS011;9469;51.114;13.914;2024-03-25T11:57:00;4.97;;;2.33;;
18677;SDS011;9469;51.114;13.914;2024-03-25T12:02:05;4.27;;;2.53;;
18677;SDS011;9469;51.114;13.914;2024-03-25T12:07:10;3.13;;;2.40;;
18677;SDS011;9469;51.114;13.914;2024-03-25T12:12:13;3.77;;;2.60;;
18677;SDS011;9469;51.114;13.914;2024-03-25T12:17:14;4.00;;;2.23;;
18677;SDS011;9469;51.114;13.914;2024-03-25T12:27:36;5.87;;;2.47;;
18677;SDS011;9469;51.114;13.914;2024-03-25T12:32:39;5.33;;;2.53;;
18677;SDS011;9469;51.114;13.914;2024-03-25T12:37:45;4.50;;;2.27;;
18677;SDS011;9469;51.114;13.914;2024-03-25T12:42:48;3.23;;;1.83;;
18677;SDS011;9469;51.114;13.914;2024-03-25T12:47:53;3.57;;;2.83;;
18677;SDS011;9469;51.114;13.914;2024-03-25T12:52:57;4.47;;;2.77;;
18677;SDS011;9469;51.114;13.914;2024-03-25T12:57:59;4.10;;;2.30;;
18677;SDS011;9469;51.114;13.914;2024-03-25T13:03:00;3.70;;;2.47;;
18677;SDS011;9469;51.114;13.914;2024-03-25T13:08:05;4.40;;;2.33;;
18677;SDS011;9469;51.114;13.914;2024-03-25T13:13:07;2.37;;;2.17;;
18677;SDS011;9469;51.114;13.914;2024-03-25T13:18:08;3.07;;;2.03;;
18677;SDS011;9469;51.114;13.914;2024-03-25T13:23:12;3.67;;;2.20;;
18677;SDS011;9469;51.114;13.914;2024-03-25T13:28:19;3.47;;;1.70;;
18677;SDS011;9469;51.114;13.914;2024-03-25T13:33:23;2.70;;;1.87;;
18677;SDS011;9469;51.114;13.914;2024-03-25T13:38:27;3.90;;;1.90;;
18677;SDS011;9469;51.114;13.914;2024-03-25T13:43:29;5.27;;;1.87;;
18677;SDS011;9469;51.114;13.914;2024-03-25T13:48:34;3.30;;;1.90;;
18677;SDS011;9469;51.114;13.914;2024-03-25T13:53:40;3.87;;;2.50;;
18677;SDS011;9469;51.114;13.914;2024-03-25T13:58:43;3.50;;;1.97;;
18677;SDS011;9469;51.114;13.914;2024-03-25T14:03:47;2.50;;;2.00;;
18677;SDS011;9469;51.114;13.914;2024-03-25T14:08:51;8.07;;;2.90;;
18677;SDS011;9469;51.114;13.914;2024-03-25T14:13:53;2.57;;;1.83;;
18677;SDS011;9469;51.114;13.914;2024-03-25T14:18:55;2.57;;;2.03;;
18677;SDS011;9469;51.114;13.914;2024-03-25T14:24:00;1.90;;;1.53;;
18677;SDS011;9469;51.114;13.914;2024-03-25T14:29:01;2.77;;;1.83;;
18677;SDS011;9469;51.114;13.914;2024-03-25T14:34:10;3.77;;;1.60;;
18677;SDS011;9469;51.114;13.914;2024-03-25T14:39:14;3.13;;;2.03;;
18677;SDS011;9469;51.114;13.914;2024-03-25T14:44:17;4.53;;;2.60;;
18677;SDS011;9469;51.114;13.914;2024-03-25T14:54:45;5.77;;;2.77;;
18677;SDS011;9469;51.114;13.914;2024-03-25T14:59:49;5.47;;;2.60;;
18677;SDS011;9469;51.114;13.914;2024-03-25T15:04:51;6.13;;;2.70;;
18677;SDS011;9469;51.114;13.914;2024-03-25T15:09:55;8.50;;;2.90;;
18677;SDS011;9469;51.114;13.914;2024-03-25T15:14:56;3.20;;;2.40;;
18677;SDS011;9469;51.114;13.914;2024-03-25T15:19:58;3.30;;;2.40;;
18677;SDS011;9469;51.114;13.914;2024-03-25T15:25:05;5.63;;;2.37;;
18677;SDS011;9469;51.114;13.914;2024-03-25T15:30:08;4.53;;;2.53;;
18677;SDS011;9469;51.114;13.914;2024-03-25T15:35:10;4.70;;;2.47;;
18677;SDS011;9469;51.114;13.914;2024-03-25T15:40:15;4.03;;;2.83;;
18677;SDS011;9469;51.114;13.914;2024-03-25T15:45:18;2.77;;;2.33;;
18677;SDS011;9469;51.114;13.914;2024-03-25T15:50:22;3.17;;;2.73;;
18677;SDS011;9469;51.114;13.914;2024-03-25T15:55:26;6.33;;;2.43;;
18677;SDS011;9469;51.114;13.914;2024-03-25T16:00:28;4.93;;;2.20;;
18677;SDS011;9469;51.114;13.914;2024-03-25T16:05:29;4.27;;;2.30;;
18677;SDS011;9469;51.114;13.914;2024-03-25T16:10:34;5.77;;;2.20;;
18677;SDS011;9469;51.114;13.914;2024-03-25T16:15:36;3.67;;;2.42;;
18677;SDS011;9469;51.114;13.914;2024-03-25T16:20:37;4.50;;;2.43;;
18677;SDS011;9469;51.114;13.914;2024-03-25T16:25:41;2.90;;;2.07;;
18677;SDS011;9469;51.114;13.914;2024-03-25T16:30:46;3.60;;;2.20;;
18677;SDS011;9469;51.114;13.914;2024-03-25T16:35:47;3.43;;;2.03;;
18677;SDS011;9469;51.114;13.914;2024-03-25T16:40:51;3.40;;;2.00;;
18677;SDS011;9469;51.114;13.914;2024-03-25T16:45:53;4.10;;;2.43;;
18677;SDS011;9469;51.114;13.914;2024-03-25T16:50:54;2.93;;;1.87;;
18677;SDS011;9469;51.114;13.914;2024-03-25T16:56:07;4.57;;;2.33;;
18677;SDS011;9469;51.114;13.914;2024-03-25T17:01:10;3.73;;;2.17;;
18677;SDS011;9469;51.114;13.914;2024-03-25T17:06:11;4.63;;;2.50;;
18677;SDS011;9469;51.114;13.914;2024-03-25T17:11:16;10.27;;;2.93;;
18677;SDS011;9469;51.114;13.914;2024-03-25T17:16:17;4.90;;;2.97;;
18677;SDS011;9469;51.114;13.914;2024-03-25T17:21:18;5.67;;;2.73;;
18677;SDS011;9469;51.114;13.914;2024-03-25T17:26:23;5.30;;;2.87;;
18677;SDS011;9469;51.114;13.914;2024-03-25T17:31:24;3.20;;;2.20;;
18677;SDS011;9469;51.114;13.914;2024-03-25T17:36:30;9.73;;;4.10;;
18677;SDS011;9469;51.114;13.914;2024-03-25T17:41:34;8.43;;;5.27;;
18677;SDS011;9469;51.114;13.914;2024-03-25T17:46:35;12.43;;;7.00;;
18677;SDS011;9469;51.114;13.914;2024-03-25T17:51:37;12.47;;;6.90;;
18677;SDS011;9469;51.114;13.914;2024-03-25T17:56:41;22.20;;;5.40;;
18677;SDS011;9469;51.114;13.914;2024-03-25T18:01:45;7.20;;;3.70;;
18677;SDS011;9469;51.114;13.914;2024-03-25T18:06:46;3.60;;;3.00;;
18677;SDS011;9469;51.114;13.914;2024-03-25T18:11:51;8.13;;;2.97;;
18677;SDS011;9469;51.114;13.914;2024-03-25T18:16:52;3.47;;;3.07;;
18677;SDS011;9469;51.114;13.914;2024-03-25T18:21:54;17.00;;;9.67;;
18677;SDS011;9469;51.114;13.914;2024-03-25T18:26:59;8.67;;;4.57;;
18677;SDS011;9469;51.114;13.914;2024-03-25T18:32:02;8.80;;;3.53;;
18677;SDS011;9469;51.114;13.914;2024-03-25T18:37:04;6.23;;;5.27;;
18677;SDS011;9469;51.114;13.914;2024-03-25T18:42:08;12.47;;;7.70;;
18677;SDS011;9469;51.114;13.914;2024-03-25T18:47:14;9.53;;;7.00;;
18677;SDS011;9469;51.114;13.914;2024-03-25T18:52:16;12.50;;;7.80;;
18677;SDS011;9469;51.114;13.914;2024-03-25T18:57:20;17.57;;;11.30;;
18677;SDS011;9469;51.114;13.914;2024-03-25T19:02:21;15.50;;;10.30;;
18677;SDS011;9469;51.114;13.914;2024-03-25T19:07:23;14.57;;;9.80;;
18677;SDS011;9469;51.114;13.914;2024-03-25T19:12:27;15.10;;;10.93;;
18677;SDS011;9469;51.114;13.914;2024-03-25T19:17:31;12.93;;;8.67;;
18677;SDS011;9469;51.114;13.914;2024-03-25T19:22:32;16.37;;;11.13;;
18677;SDS011;9469;51.114;13.914;2024-03-25T19:27:38;14.00;;;9.27;;
18677;SDS011;9469;51.114;13.914;2024-03-25T19:32:39;18.53;;;12.07;;
18677;SDS011;9469;51.114;13.914;2024-03-25T19:37:41;17.33;;;11.90;;
18677;SDS011;9469;51.114;13.914;2024-03-25T19:42:45;20.00;;;12.27;;
18677;SDS011;9469;51.114;13.914;2024-03-25T19:47:46;12.60;;;8.90;;
18677;SDS011;9469;51.114;13.914;2024-03-25T19:52:48;12.03;;;7.50;;
18677;SDS011;9469;51.114;13.914;2024-03-25T19:57:52;11.07;;;8.50;;
18677;SDS011;9469;51.114;13.914;2024-03-25T20:02:54;13.87;;;9.67;;
18677;SDS011;9469;51.114;13.914;2024-03-25T20:07:56;11.10;;;8.67;;
18677;SDS011;9469;51.114;13.914;2024-03-25T20:12:59;14.00;;;8.03;;
18677;SDS011;9469;51.114;13.914;2024-03-25T20:18:01;12.47;;;7.70;;
18677;SDS011;9469;51.114;13.914;2024-03-25T20:23:03;13.07;;;8.63;;
18677;SDS011;9469;51.114;13.914;2024-03-25T20:28:07;13.13;;;8.30;;
18677;SDS011;9469;51.114;13.914;2024-03-25T20:33:09;10.77;;;9.20;;
18677;SDS011;9469;51.114;13.914;2024-03-25T20:38:10;11.10;;;7.80;;
18677;SDS011;9469;51.114;13.914;2024-03-25T20:43:15;11.57;;;8.23;;
18677;SDS011;9469;51.114;13.914;2024-03-25T20:48:16;12.70;;;8.07;;
18677;SDS011;9469;51.114;13.914;2024-03-25T20:53:19;9.63;;;8.00;;
18677;SDS011;9469;51.114;13.914;2024-03-25T20:58:22;15.33;;;9.87;;
18677;SDS011;9469;51.114;13.914;2024-03-25T21:03:24;15.03;;;9.03;;
18677;SDS011;9469;51.114;13.914;2024-03-25T21:08:25;16.63;;;10.17;;
18677;SDS011;9469;51.114;13.914;2024-03-25T21:13:29;15.03;;;9.73;;
18677;SDS011;9469;51.114;13.914;2024-03-25T21:18:31;12.20;;;9.17;;
18677;SDS011;9469;51.114;13.914;2024-03-25T21:23:32;16.10;;;9.97;;
18677;SDS011;9469;51.114;13.914;2024-03-25T21:28:36;15.30;;;10.03;;
18677;SDS011;9469;51.114;13.914;2024-03-25T21:33:38;15.20;;;10.57;;
18677;SDS011;9469;51.114;13.914;2024-03-25T21:38:39;16.23;;;10.33;;
18677;SDS011;9469;51.114;13.914;2024-03-25T21:43:43;15.40;;;8.43;;
18677;SDS011;9469;51.114;13.914;2024-03-25T21:48:45;14.53;;;9.17;;
18677;SDS011;9469;51.114;13.914;2024-03-25T21:53:46;14.70;;;9.00;;
18677;SDS011;9469;51.114;13.914;2024-03-25T21:58:50;13.47;;;9.03;;
18677;SDS011;9469;51.114;13.914;2024-03-25T22:03:51;12.50;;;8.10;;
18677;SDS011;9469;51.114;13.914;2024-03-25T22:08:52;12.83;;;8.33;;
18677;SDS011;9469;51.114;13.914;2024-03-25T22:13:56;17.60;;;9.60;;
18677;SDS011;9469;51.114;13.914;2024-03-25T22:18:58;15.23;;;8.97;;
18677;SDS011;9469;51.114;13.914;2024-03-25T22:24:00;15.60;;;9.73;;
18677;SDS011;9469;51.114;13.914;2024-03-25T22:29:04;15.33;;;9.37;;
18677;SDS011;9469;51.114;13.914;2024-03-25T22:34:05;13.13;;;7.93;;
18677;SDS011;9469;51.114;13.914;2024-03-25T22:39:09;13.33;;;7.83;;
18677;SDS011;9469;51.114;13.914;2024-03-25T22:44:13;10.63;;;8.03;;
18677;SDS011;9469;51.114;13.914;2024-03-25T22:49:14;11.07;;;7.47;;
18677;SDS011;9469;51.114;13.914;2024-03-25T22:54:16;9.87;;;7.70;;
18677;SDS011;9469;51.114;13.914;2024-03-25T22:59:20;9.90;;;7.17;;
18677;SDS011;9469;51.114;13.914;2024-03-25T23:04:22;13.37;;;8.80;;
18677;SDS011;9469;51.114;13.914;2024-03-25T23:09:23;13.10;;;8.03;;
18677;SDS011;9469;51.114;13.914;2024-03-25T23:14:27;10.50;;;7.33;;
18677;SDS011;9469;51.114;13.914;2024-03-25T23:19:29;10.50;;;8.03;;
18677;SDS011;9469;51.114;13.914;2024-03-25T23:24:30;9.57;;;7.47;;
18677;SDS011;9469;51.114;13.914;2024-03-25T23:29:34;10.97;;;7.90;;
18677;SDS011;9469;51.114;13.914;2024-03-25T23:34:35;12.77;;;6.67;;
18677;SDS011;9469;51.114;13.914;2024-03-25T23:39:37;10.87;;;7.47;;
18677;SDS011;9469;51.114;13.914;2024-03-25T23:44:41;10.40;;;7.30;;
18677;SDS011;9469;51.114;13.914;2024-03-25T23:49:42;11.00;;;7.63;;
18677;SDS011;9469;51.114;13.914;2024-03-25T23:54:44;9.20;;;7.97;;
18677;SDS011;9469;51.114;13.914;2024-03-25T23:59:48;12.50;;;7.43;;
